Time,TemperatureF,DewpointF,PressureIn,WindDirection,WindDirectionDegrees,WindSpeedMPH,WindSpeedGustMPH,Humidity,HourlyPrecipIn,Conditions,Clouds,dailyrainin,SoftwareType,DateUTC
2013-01-09 00:03:00,48.2,47.4,29.64,NE,45,0.0,7.0,97,0.19,,,0.03,Weather View 32 v70,2013-01-09 08:03:00,
2013-01-09 00:09:00,47.7,46.9,29.67,NNE,22,1.0,12.0,97,0.23,,,0.08,Weather View 32 v70,2013-01-09 08:09:00,
2013-01-09 00:14:00,46.3,45.5,29.66,SW,225,3.0,12.0,97,0.26,,,0.11,Weather View 32 v70,2013-01-09 08:14:00,
2013-01-09 00:19:00,45.8,45.0,29.66,NE,45,1.0,12.0,97,0.14,,,0.12,Weather View 32 v70,2013-01-09 08:19:00,
2013-01-09 00:24:00,45.6,44.8,29.66,SW,225,0.0,12.0,97,0.26,,,0.13,Weather View 32 v70,2013-01-09 08:24:00,
2013-01-09 00:29:00,45.2,44.4,29.67,SW,225,1.0,12.0,97,0.26,,,0.14,Weather View 32 v70,2013-01-09 08:29:00,
2013-01-09 00:34:00,44.9,43.8,29.67,WSW,247,2.0,12.0,96,0.26,,,0.15,Weather View 32 v70,2013-01-09 08:34:00,
2013-01-09 00:39:00,44.8,43.7,29.67,WSW,247,0.0,12.0,96,0.25,,,0.16,Weather View 32 v70,2013-01-09 08:39:00,
2013-01-09 00:44:00,44.7,43.6,29.67,NW,315,0.0,12.0,96,0.24,,,0.17,Weather View 32 v70,2013-01-09 08:44:00,
2013-01-09 00:49:00,44.5,43.4,29.67,NNE,22,1.0,12.0,96,0.23,,,0.18,Weather View 32 v70,2013-01-09 08:49:00,
2013-01-09 00:54:00,44.4,43.3,29.68,SW,225,0.0,12.0,96,0.21,,,0.19,Weather View 32 v70,2013-01-09 08:54:00,
2013-01-09 00:59:00,44.2,43.1,29.68,WSW,247,0.0,12.0,96,0.20,,,0.20,Weather View 32 v70,2013-01-09 08:59:00,
2013-01-09 01:04:00,44.2,43.1,29.67,NE,45,1.0,12.0,96,0.18,,,0.21,Weather View 32 v70,2013-01-09 09:04:00,
2013-01-09 01:09:00,43.9,42.8,29.68,NE,45,2.0,9.0,96,0.14,,,0.22,Weather View 32 v70,2013-01-09 09:09:00,
2013-01-09 01:14:00,43.9,42.8,29.68,North,360,2.0,7.0,96,0.13,,,0.24,Weather View 32 v70,2013-01-09 09:14:00,
2013-01-09 01:19:00,43.9,42.8,29.68,ENE,67,1.0,7.0,96,0.13,,,0.25,Weather View 32 v70,2013-01-09 09:19:00,
2013-01-09 01:24:00,43.8,42.7,29.68,NW,315,0.0,7.0,96,0.13,,,0.26,Weather View 32 v70,2013-01-09 09:24:00,
2013-01-09 01:29:00,43.6,42.5,29.67,SW,225,1.0,7.0,96,0.15,,,0.29,Weather View 32 v70,2013-01-09 09:29:00,
2013-01-09 01:34:00,43.6,42.5,29.68,WSW,247,0.0,7.0,96,0.16,,,0.31,Weather View 32 v70,2013-01-09 09:34:00,
2013-01-09 01:39:00,43.5,42.4,29.68,NNE,22,3.0,6.0,96,0.16,,,0.32,Weather View 32 v70,2013-01-09 09:39:00,
2013-01-09 01:44:00,43.4,42.3,29.68,SW,225,1.0,6.0,96,0.17,,,0.34,Weather View 32 v70,2013-01-09 09:44:00,
2013-01-09 01:49:00,43.2,42.1,29.67,SW,225,0.0,6.0,96,0.18,,,0.36,Weather View 32 v70,2013-01-09 09:49:00,
2013-01-09 01:54:00,43.2,42.1,29.67,West,270,1.0,6.0,96,0.19,,,0.38,Weather View 32 v70,2013-01-09 09:54:00,
2013-01-09 01:59:00,43.2,42.1,29.68,WSW,247,0.0,6.0,96,0.20,,,0.40,Weather View 32 v70,2013-01-09 09:59:00,
2013-01-09 02:04:00,43.1,42.0,29.68,WSW,247,0.0,6.0,96,0.21,,,0.42,Weather View 32 v70,2013-01-09 10:04:00,
2013-01-09 02:09:00,43.1,42.0,29.68,East,90,0.0,6.0,96,0.22,,,0.44,Weather View 32 v70,2013-01-09 10:09:00,
2013-01-09 02:14:00,42.9,41.8,29.68,SE,135,0.0,6.0,96,0.21,,,0.45,Weather View 32 v70,2013-01-09 10:14:00,
2013-01-09 02:19:00,43.0,41.9,29.68,NW,315,0.0,6.0,96,0.22,,,0.47,Weather View 32 v70,2013-01-09 10:19:00,
2013-01-09 02:24:00,43.0,41.9,29.68,NE,45,2.0,4.0,96,0.22,,,0.48,Weather View 32 v70,2013-01-09 10:24:00,
2013-01-09 02:29:00,43.0,41.9,29.68,East,90,1.0,4.0,96,0.21,,,0.50,Weather View 32 v70,2013-01-09 10:29:00,
2013-01-09 02:34:00,43.0,41.9,29.68,NE,45,1.0,4.0,96,0.20,,,0.51,Weather View 32 v70,2013-01-09 10:34:00,
2013-01-09 02:39:00,43.0,41.9,29.68,East,90,1.0,4.0,96,0.21,,,0.53,Weather View 32 v70,2013-01-09 10:39:00,
2013-01-09 02:44:00,43.0,41.9,29.68,NE,45,0.0,3.0,96,0.20,,,0.54,Weather View 32 v70,2013-01-09 10:44:00,
2013-01-09 02:49:00,42.9,41.8,29.68,WNW,292,0.0,4.0,96,0.18,,,0.54,Weather View 32 v70,2013-01-09 10:49:00,
2013-01-09 02:54:00,42.9,41.8,29.68,East,90,0.0,4.0,96,0.16,,,0.54,Weather View 32 v70,2013-01-09 10:54:00,
2013-01-09 02:59:00,42.9,41.8,29.68,ENE,67,2.0,4.0,96,0.15,,,0.55,Weather View 32 v70,2013-01-09 10:59:00,
2013-01-09 03:04:00,42.9,41.8,29.68,ENE,67,0.0,4.0,96,0.14,,,0.56,Weather View 32 v70,2013-01-09 11:04:00,
2013-01-09 03:09:00,42.8,41.7,29.68,ENE,67,1.0,4.0,96,0.12,,,0.56,Weather View 32 v70,2013-01-09 11:09:00,
2013-01-09 03:14:00,42.8,41.7,29.68,NE,45,0.0,4.0,96,0.11,,,0.56,Weather View 32 v70,2013-01-09 11:14:00,
2013-01-09 03:19:00,42.8,41.7,29.68,NE,45,0.0,4.0,96,0.09,,,0.56,Weather View 32 v70,2013-01-09 11:19:00,
2013-01-09 03:24:00,42.7,41.6,29.68,West,270,0.0,4.0,96,0.08,,,0.56,Weather View 32 v70,2013-01-09 11:24:00,
2013-01-09 03:29:00,42.7,41.6,29.68,WNW,292,0.0,4.0,96,0.06,,,0.56,Weather View 32 v70,2013-01-09 11:29:00,
2013-01-09 03:34:00,42.7,41.6,29.67,WNW,292,0.0,4.0,96,0.06,,,0.57,Weather View 32 v70,2013-01-09 11:34:00,
2013-01-09 03:39:00,42.6,41.5,29.67,SSW,202,1.0,4.0,96,0.05,,,0.58,Weather View 32 v70,2013-01-09 11:39:00,
2013-01-09 03:44:00,42.6,41.5,29.67,SSW,202,1.0,4.0,96,0.04,,,0.58,Weather View 32 v70,2013-01-09 11:44:00,
2013-01-09 03:49:00,42.6,41.5,29.67,SSW,202,0.0,2.0,96,0.04,,,0.58,Weather View 32 v70,2013-01-09 11:49:00,
2013-01-09 03:54:00,42.6,41.5,29.67,SSW,202,0.0,2.0,96,0.05,,,0.59,Weather View 32 v70,2013-01-09 11:54:00,
2013-01-09 03:59:00,42.5,41.4,29.67,SSW,202,2.0,2.0,96,0.05,,,0.60,Weather View 32 v70,2013-01-09 11:59:00,
2013-01-09 04:04:00,42.5,41.4,29.67,SSW,202,0.0,2.0,96,0.05,,,0.61,Weather View 32 v70,2013-01-09 12:04:00,
2013-01-09 04:09:00,42.4,41.3,29.67,SSW,202,0.0,2.0,96,0.06,,,0.62,Weather View 32 v70,2013-01-09 12:09:00,
2013-01-09 04:14:00,42.4,41.3,29.66,SSW,202,0.0,2.0,96,0.06,,,0.62,Weather View 32 v70,2013-01-09 12:14:00,
2013-01-09 04:19:00,42.4,41.3,29.66,SSW,202,0.0,2.0,96,0.07,,,0.63,Weather View 32 v70,2013-01-09 12:19:00,
2013-01-09 04:24:00,42.4,41.3,29.66,SSW,202,0.0,2.0,96,0.07,,,0.63,Weather View 32 v70,2013-01-09 12:24:00,
2013-01-09 04:29:00,42.4,41.3,29.66,SSW,202,0.0,2.0,96,0.08,,,0.64,Weather View 32 v70,2013-01-09 12:29:00,
2013-01-09 04:34:00,42.4,41.3,29.66,East,90,1.0,2.0,96,0.07,,,0.64,Weather View 32 v70,2013-01-09 12:34:00,
2013-01-09 04:39:00,42.2,41.1,29.66,ENE,67,2.0,2.0,96,0.07,,,0.66,Weather View 32 v70,2013-01-09 12:39:00,
2013-01-09 04:44:00,42.1,41.0,29.65,East,90,1.0,2.0,96,0.08,,,0.67,Weather View 32 v70,2013-01-09 12:44:00,
2013-01-09 04:49:00,42.0,40.9,29.65,East,90,0.0,2.0,96,0.10,,,0.68,Weather View 32 v70,2013-01-09 12:49:00,
2013-01-09 04:54:00,42.0,40.9,29.64,SSE,157,0.0,2.0,96,0.10,,,0.69,Weather View 32 v70,2013-01-09 12:54:00,
2013-01-09 04:59:00,42.0,40.9,29.64,SSE,157,0.0,2.0,96,0.10,,,0.70,Weather View 32 v70,2013-01-09 12:59:00,
2013-01-09 05:04:00,41.9,40.8,29.64,SSW,202,0.0,2.0,96,0.09,,,0.70,Weather View 32 v70,2013-01-09 13:04:00,
2013-01-09 05:09:00,41.9,40.8,29.64,ENE,67,1.0,2.0,96,0.09,,,0.71,Weather View 32 v70,2013-01-09 13:09:00,
2013-01-09 05:14:00,41.8,40.7,29.63,ENE,67,0.0,2.0,96,0.09,,,0.71,Weather View 32 v70,2013-01-09 13:14:00,
2013-01-09 05:19:00,41.8,40.7,29.64,ESE,112,0.0,2.0,96,0.08,,,0.71,Weather View 32 v70,2013-01-09 13:19:00,
2013-01-09 05:24:00,41.8,40.7,29.64,SSE,157,0.0,2.0,96,0.09,,,0.72,Weather View 32 v70,2013-01-09 13:24:00,
2013-01-09 05:29:00,41.7,40.6,29.64,SSE,157,0.0,2.0,96,0.08,,,0.72,Weather View 32 v70,2013-01-09 13:29:00,
2013-01-09 05:34:00,41.7,40.6,29.64,SSE,157,0.0,2.0,96,0.09,,,0.73,Weather View 32 v70,2013-01-09 13:34:00,
2013-01-09 05:39:00,41.7,40.6,29.64,SSE,157,0.0,2.0,96,0.08,,,0.73,Weather View 32 v70,2013-01-09 13:39:00,
2013-01-09 05:44:00,41.6,40.5,29.64,SSE,157,0.0,2.0,96,0.07,,,0.73,Weather View 32 v70,2013-01-09 13:44:00,
2013-01-09 05:49:00,41.6,40.5,29.63,SSE,157,0.0,2.0,96,0.05,,,0.73,Weather View 32 v70,2013-01-09 13:49:00,
2013-01-09 05:54:00,41.6,40.5,29.64,SSE,157,0.0,2.0,96,0.04,,,0.73,Weather View 32 v70,2013-01-09 13:54:00,
2013-01-09 05:59:00,41.6,40.5,29.63,SSE,157,0.0,2.0,96,0.03,,,0.73,Weather View 32 v70,2013-01-09 13:59:00,
2013-01-09 06:04:00,41.6,40.5,29.63,SSE,157,0.0,2.0,96,0.03,,,0.73,Weather View 32 v70,2013-01-09 14:04:00,
2013-01-09 06:09:00,41.6,40.5,29.63,SSE,157,0.0,2.0,96,0.02,,,0.73,Weather View 32 v70,2013-01-09 14:09:00,
2013-01-09 06:14:00,41.6,40.5,29.63,SSE,157,0.0,2.0,96,0.02,,,0.73,Weather View 32 v70,2013-01-09 14:14:00,
2013-01-09 06:19:00,41.5,40.4,29.63,SSE,157,0.0,1.0,96,0.02,,,0.73,Weather View 32 v70,2013-01-09 14:19:00,
2013-01-09 06:24:00,41.5,40.4,29.63,SSE,157,0.0,1.0,96,0.01,,,0.73,Weather View 32 v70,2013-01-09 14:24:00,
2013-01-09 06:29:00,41.5,40.4,29.63,SSE,157,0.0,1.0,96,0.01,,,0.73,Weather View 32 v70,2013-01-09 14:29:00,
2013-01-09 06:34:00,41.5,40.4,29.64,SSE,157,0.0,1.0,96,0.00,,,0.73,Weather View 32 v70,2013-01-09 14:34:00,
2013-01-09 06:39:00,41.5,40.4,29.64,SSE,157,0.0,1.0,96,0.00,,,0.73,Weather View 32 v70,2013-01-09 14:39:00,
2013-01-09 06:44:00,41.5,40.4,29.64,South,180,0.0,1.0,96,0.01,,,0.74,Weather View 32 v70,2013-01-09 14:44:00,
2013-01-09 06:49:00,41.4,40.3,29.64,South,180,0.0,1.0,96,0.01,,,0.74,Weather View 32 v70,2013-01-09 14:49:00,
2013-01-09 06:54:00,41.4,40.3,29.64,South,180,0.0,2.0,96,0.01,,,0.74,Weather View 32 v70,2013-01-09 14:54:00,
2013-01-09 06:59:00,41.4,40.3,29.64,South,180,0.0,2.0,96,0.01,,,0.74,Weather View 32 v70,2013-01-09 14:59:00,
2013-01-09 07:04:00,41.4,40.3,29.64,South,180,0.0,2.0,96,0.01,,,0.74,Weather View 32 v70,2013-01-09 15:04:00,
2013-01-09 07:09:00,41.3,40.2,29.64,South,180,0.0,2.0,96,0.01,,,0.74,Weather View 32 v70,2013-01-09 15:09:00,
2013-01-09 07:14:00,41.2,40.1,29.63,South,180,0.0,2.0,96,0.02,,,0.75,Weather View 32 v70,2013-01-09 15:14:00,
2013-01-09 07:20:00,41.2,40.1,29.64,South,180,0.0,2.0,96,0.02,,,0.75,Weather View 32 v70,2013-01-09 15:20:00,
2013-01-09 07:25:00,41.2,40.1,29.64,South,180,0.0,2.0,96,0.02,,,0.75,Weather View 32 v70,2013-01-09 15:25:00,
2013-01-09 07:30:00,41.2,40.1,29.64,South,180,0.0,2.0,96,0.03,,,0.76,Weather View 32 v70,2013-01-09 15:30:00,
2013-01-09 07:35:00,41.2,40.1,29.64,South,180,0.0,2.0,96,0.03,,,0.76,Weather View 32 v70,2013-01-09 15:35:00,
2013-01-09 07:40:00,41.2,40.1,29.64,ENE,67,0.0,2.0,96,0.03,,,0.76,Weather View 32 v70,2013-01-09 15:40:00,
2013-01-09 07:45:00,41.2,40.1,29.65,ENE,67,0.0,2.0,96,0.03,,,0.77,Weather View 32 v70,2013-01-09 15:45:00,
2013-01-09 07:50:00,41.2,40.1,29.64,SSE,157,0.0,2.0,96,0.03,,,0.77,Weather View 32 v70,2013-01-09 15:50:00,
2013-01-09 07:55:00,41.2,40.1,29.65,South,180,0.0,2.0,96,0.03,,,0.77,Weather View 32 v70,2013-01-09 15:55:00,
2013-01-09 08:00:00,41.1,40.0,29.65,South,180,0.0,2.0,96,0.04,,,0.78,Weather View 32 v70,2013-01-09 16:00:00,
2013-01-09 08:05:00,41.2,40.1,29.65,South,180,0.0,2.0,96,0.04,,,0.78,Weather View 32 v70,2013-01-09 16:05:00,
2013-01-09 08:10:00,41.2,40.1,29.66,South,180,0.0,2.0,96,0.04,,,0.78,Weather View 32 v70,2013-01-09 16:10:00,
2013-01-09 08:15:00,41.2,40.1,29.65,South,180,0.0,2.0,96,0.03,,,0.78,Weather View 32 v70,2013-01-09 16:15:00,
2013-01-09 08:20:00,41.2,40.1,29.66,South,180,0.0,2.0,96,0.04,,,0.79,Weather View 32 v70,2013-01-09 16:20:00,
2013-01-09 08:25:00,41.2,40.1,29.66,South,180,0.0,2.0,96,0.04,,,0.79,Weather View 32 v70,2013-01-09 16:25:00,
2013-01-09 08:30:00,41.1,40.0,29.66,South,180,0.0,2.0,96,0.03,,,0.79,Weather View 32 v70,2013-01-09 16:30:00,
2013-01-09 08:35:00,41.1,40.0,29.66,South,180,0.0,2.0,96,0.03,,,0.79,Weather View 32 v70,2013-01-09 16:35:00,
2013-01-09 08:40:00,41.1,40.0,29.67,South,180,0.0,2.0,96,0.04,,,0.80,Weather View 32 v70,2013-01-09 16:40:00,
2013-01-09 08:45:00,41.1,40.0,29.67,NE,45,0.0,2.0,96,0.03,,,0.80,Weather View 32 v70,2013-01-09 16:45:00,
2013-01-09 08:50:00,41.1,40.0,29.67,NE,45,0.0,2.0,96,0.03,,,0.80,Weather View 32 v70,2013-01-09 16:50:00,
2013-01-09 08:55:00,41.1,40.0,29.67,NE,45,0.0,2.0,96,0.03,,,0.80,Weather View 32 v70,2013-01-09 16:55:00,
2013-01-09 09:00:00,41.0,39.9,29.67,NE,45,0.0,2.0,96,0.02,,,0.80,Weather View 32 v70,2013-01-09 17:00:00,
2013-01-09 09:05:00,40.9,39.8,29.67,ENE,67,2.0,2.0,96,0.03,,,0.81,Weather View 32 v70,2013-01-09 17:05:00,
2013-01-09 09:10:00,40.9,39.8,29.68,ENE,67,0.0,2.0,96,0.03,,,0.81,Weather View 32 v70,2013-01-09 17:10:00,
2013-01-09 09:15:00,41.0,39.9,29.68,SSE,157,0.0,2.0,96,0.03,,,0.81,Weather View 32 v70,2013-01-09 17:15:00,
2013-01-09 09:20:00,40.9,39.8,29.67,SSE,157,0.0,2.0,96,0.03,,,0.82,Weather View 32 v70,2013-01-09 17:20:00,
2013-01-09 09:25:00,40.9,39.8,29.68,SSE,157,0.0,2.0,96,0.03,,,0.82,Weather View 32 v70,2013-01-09 17:25:00,
2013-01-09 09:30:00,40.9,39.8,29.68,SSE,157,0.0,2.0,96,0.03,,,0.82,Weather View 32 v70,2013-01-09 17:30:00,
2013-01-09 09:35:00,40.9,39.8,29.68,NE,45,0.0,2.0,96,0.03,,,0.82,Weather View 32 v70,2013-01-09 17:35:00,
2013-01-09 09:40:00,40.8,39.7,29.68,NE,45,1.0,2.0,96,0.02,,,0.82,Weather View 32 v70,2013-01-09 17:40:00,
2013-01-09 09:45:00,40.7,39.6,29.68,NNE,22,1.0,2.0,96,0.02,,,0.82,Weather View 32 v70,2013-01-09 17:45:00,
2013-01-09 09:50:00,40.6,39.5,29.68,NNE,22,2.0,3.0,96,0.03,,,0.83,Weather View 32 v70,2013-01-09 17:50:00,
2013-01-09 09:55:00,40.7,39.6,29.68,ENE,67,1.0,3.0,96,0.03,,,0.83,Weather View 32 v70,2013-01-09 17:55:00,
2013-01-09 10:00:00,40.8,39.7,29.68,East,90,2.0,3.0,96,0.03,,,0.83,Weather View 32 v70,2013-01-09 18:00:00,
2013-01-09 10:05:00,40.7,39.6,29.68,NNE,22,2.0,3.0,96,0.02,,,0.83,Weather View 32 v70,2013-01-09 18:05:00,
2013-01-09 10:10:00,40.8,39.7,29.68,North,360,1.0,3.0,96,0.03,,,0.84,Weather View 32 v70,2013-01-09 18:10:00,
2013-01-09 10:15:00,40.8,39.7,29.68,NE,45,2.0,3.0,96,0.03,,,0.84,Weather View 32 v70,2013-01-09 18:15:00,
2013-01-09 10:20:00,40.8,39.7,29.68,NE,45,1.0,3.0,96,0.02,,,0.84,Weather View 32 v70,2013-01-09 18:20:00,
2013-01-09 10:25:00,40.7,39.6,29.68,NNE,22,0.0,3.0,96,0.02,,,0.84,Weather View 32 v70,2013-01-09 18:25:00,
2013-01-09 10:30:00,40.8,39.7,29.68,NNE,22,0.0,3.0,96,0.02,,,0.84,Weather View 32 v70,2013-01-09 18:30:00,
2013-01-09 10:35:00,40.8,39.7,29.68,NE,45,2.0,3.0,96,0.02,,,0.84,Weather View 32 v70,2013-01-09 18:35:00,
2013-01-09 10:40:00,40.7,39.6,29.68,NE,45,1.0,3.0,96,0.02,,,0.84,Weather View 32 v70,2013-01-09 18:40:00,
2013-01-09 10:41:00,40.6,39.5,29.68,NE,45,1.0,3.0,96,0.02,,,0.84,Weather View 32 v70,2013-01-09 18:41:00,
2013-01-09 10:44:00,40.6,39.5,29.68,NE,45,2.0,3.0,96,0.02,,,0.84,Weather View 32 v70,2013-01-09 18:44:00,
2013-01-09 10:45:00,40.8,39.7,29.68,NE,45,2.0,3.0,96,0.02,,,0.84,Weather View 32 v70,2013-01-09 18:45:00,
2013-01-09 10:48:00,40.7,39.6,29.68,NNE,22,0.0,3.0,96,0.01,,,0.84,Weather View 32 v70,2013-01-09 18:48:00,
2013-01-09 10:49:00,40.8,39.7,29.68,NNE,22,0.0,3.0,96,0.01,,,0.84,Weather View 32 v70,2013-01-09 18:49:00,
2013-01-09 10:54:00,40.8,39.7,29.68,NE,45,2.0,3.0,96,0.01,,,0.84,Weather View 32 v70,2013-01-09 18:54:00,
2013-01-09 10:59:00,40.8,39.7,29.68,NE,45,0.0,3.0,96,0.01,,,0.84,Weather View 32 v70,2013-01-09 18:59:00,
2013-01-09 11:04:00,40.9,39.8,29.68,NNE,22,0.0,3.0,96,0.01,,,0.84,Weather View 32 v70,2013-01-09 19:04:00,
2013-01-09 11:09:00,40.8,39.7,29.68,West,270,0.0,3.0,96,0.01,,,0.84,Weather View 32 v70,2013-01-09 19:09:00,
2013-01-09 11:14:00,40.8,39.7,29.68,East,90,2.0,3.0,96,0.00,,,0.84,Weather View 32 v70,2013-01-09 19:14:00,
2013-01-09 11:19:00,40.8,39.7,29.68,NE,45,1.0,3.0,96,0.00,,,0.84,Weather View 32 v70,2013-01-09 19:19:00,
2013-01-09 11:24:00,40.9,39.8,29.68,North,360,0.0,3.0,96,0.00,,,0.84,Weather View 32 v70,2013-01-09 19:24:00,
2013-01-09 11:29:00,40.9,39.8,29.68,East,90,0.0,3.0,96,0.00,,,0.84,Weather View 32 v70,2013-01-09 19:29:00,
2013-01-09 11:34:00,40.9,39.8,29.68,NW,315,0.0,3.0,96,0.00,,,0.84,Weather View 32 v70,2013-01-09 19:34:00,
2013-01-09 11:39:00,40.9,39.8,29.68,East,90,0.0,3.0,96,0.00,,,0.84,Weather View 32 v70,2013-01-09 19:39:00,
2013-01-09 11:44:00,40.9,39.8,29.69,NE,45,1.0,3.0,96,0.00,,,0.84,Weather View 32 v70,2013-01-09 19:44:00,
2013-01-09 11:49:00,40.7,39.6,29.69,East,90,1.0,4.0,96,0.00,,,0.84,Weather View 32 v70,2013-01-09 19:49:00,
2013-01-09 11:54:00,40.6,39.5,29.68,ENE,67,4.0,4.0,96,0.00,,,0.84,Weather View 32 v70,2013-01-09 19:54:00,
2013-01-09 11:59:00,40.5,39.4,29.68,NE,45,0.0,7.0,96,0.00,,,0.84,Weather View 32 v70,2013-01-09 19:59:00,
2013-01-09 12:04:00,40.5,39.4,29.67,NNE,22,2.0,7.0,96,0.00,,,0.84,Weather View 32 v70,2013-01-09 20:04:00,
2013-01-09 12:09:00,40.5,39.4,29.68,East,90,1.0,7.0,96,0.00,,,0.84,Weather View 32 v70,2013-01-09 20:09:00,
2013-01-09 12:14:00,40.6,39.5,29.68,West,270,0.0,7.0,96,0.00,,,0.84,Weather View 32 v70,2013-01-09 20:14:00,
2013-01-09 12:19:00,40.5,39.4,29.68,NE,45,2.0,7.0,96,0.00,,,0.84,Weather View 32 v70,2013-01-09 20:19:00,
2013-01-09 12:24:00,40.5,39.4,29.68,NNW,337,0.0,7.0,96,0.00,,,0.84,Weather View 32 v70,2013-01-09 20:24:00,
2013-01-09 12:29:00,40.4,39.3,29.68,ENE,67,2.0,7.0,96,0.00,,,0.84,Weather View 32 v70,2013-01-09 20:29:00,
2013-01-09 12:34:00,40.3,39.2,29.68,East,90,1.0,7.0,96,0.00,,,0.84,Weather View 32 v70,2013-01-09 20:34:00,
2013-01-09 12:39:00,40.5,39.4,29.69,WSW,247,0.0,7.0,96,0.00,,,0.84,Weather View 32 v70,2013-01-09 20:39:00,
2013-01-09 12:44:00,40.5,39.4,29.69,NE,45,0.0,7.0,96,0.00,,,0.84,Weather View 32 v70,2013-01-09 20:44:00,
2013-01-09 12:49:00,40.4,39.3,29.69,ENE,67,1.0,7.0,96,0.00,,,0.84,Weather View 32 v70,2013-01-09 20:49:00,
2013-01-09 12:54:00,40.4,39.3,29.69,NE,45,3.0,7.0,96,0.00,,,0.84,Weather View 32 v70,2013-01-09 20:54:00,
2013-01-09 12:59:00,40.5,39.4,29.69,NE,45,1.0,6.0,96,0.00,,,0.84,Weather View 32 v70,2013-01-09 20:59:00,
2013-01-09 13:04:00,40.4,39.3,29.69,WNW,292,0.0,6.0,96,0.00,,,0.84,Weather View 32 v70,2013-01-09 21:04:00,
2013-01-09 13:09:00,40.4,39.3,29.69,WSW,247,1.0,5.0,96,0.00,,,0.84,Weather View 32 v70,2013-01-09 21:09:00,
2013-01-09 13:14:00,40.4,39.3,29.70,North,360,1.0,5.0,96,0.00,,,0.84,Weather View 32 v70,2013-01-09 21:14:00,
2013-01-09 13:19:00,40.2,39.1,29.70,NE,45,1.0,5.0,96,0.00,,,0.84,Weather View 32 v70,2013-01-09 21:19:00,
2013-01-09 13:24:00,40.1,39.0,29.70,North,360,2.0,5.0,96,0.00,,,0.84,Weather View 32 v70,2013-01-09 21:24:00,
2013-01-09 13:29:00,40.0,39.0,29.70,NNE,22,1.0,5.0,96,0.00,,,0.84,Weather View 32 v70,2013-01-09 21:29:00,
2013-01-09 13:34:00,40.1,39.0,29.70,NNE,22,0.0,5.0,96,0.00,,,0.84,Weather View 32 v70,2013-01-09 21:34:00,
2013-01-09 13:39:00,40.0,39.0,29.70,NE,45,1.0,5.0,96,0.00,,,0.84,Weather View 32 v70,2013-01-09 21:39:00,
2013-01-09 13:44:00,40.0,39.0,29.70,NNE,22,1.0,5.0,96,0.00,,,0.84,Weather View 32 v70,2013-01-09 21:44:00,
2013-01-09 13:49:00,40.1,39.0,29.70,North,360,1.0,5.0,96,0.00,,,0.84,Weather View 32 v70,2013-01-09 21:49:00,
2013-01-09 13:54:00,39.9,38.9,29.70,NNW,337,0.0,5.0,96,0.00,,,0.84,Weather View 32 v70,2013-01-09 21:54:00,
2013-01-09 13:59:00,39.8,38.8,29.71,North,360,1.0,5.0,96,0.00,,,0.84,Weather View 32 v70,2013-01-09 21:59:00,
2013-01-09 14:04:00,39.8,38.8,29.71,NNW,337,0.0,5.0,96,0.00,,,0.84,Weather View 32 v70,2013-01-09 22:04:00,
2013-01-09 14:09:00,39.7,38.7,29.72,North,360,2.0,5.0,96,0.00,,,0.84,Weather View 32 v70,2013-01-09 22:09:00,
2013-01-09 14:14:00,39.5,38.5,29.72,NE,45,2.0,5.0,96,0.00,,,0.84,Weather View 32 v70,2013-01-09 22:14:00,
2013-01-09 14:19:00,39.5,38.5,29.72,ENE,67,0.0,5.0,96,0.00,,,0.84,Weather View 32 v70,2013-01-09 22:19:00,
2013-01-09 14:24:00,39.3,38.3,29.72,NE,45,2.0,5.0,96,0.00,,,0.84,Weather View 32 v70,2013-01-09 22:24:00,
2013-01-09 14:29:00,39.3,38.3,29.72,WSW,247,2.0,5.0,96,0.00,,,0.84,Weather View 32 v70,2013-01-09 22:29:00,
2013-01-09 14:34:00,39.4,38.4,29.72,NNE,22,0.0,5.0,96,0.00,,,0.84,Weather View 32 v70,2013-01-09 22:34:00,
2013-01-09 14:39:00,39.4,38.4,29.72,NNE,22,1.0,5.0,96,0.00,,,0.84,Weather View 32 v70,2013-01-09 22:39:00,
2013-01-09 14:44:00,39.2,38.2,29.73,NE,45,0.0,5.0,96,0.00,,,0.84,Weather View 32 v70,2013-01-09 22:44:00,
2013-01-09 14:49:00,39.1,38.1,29.73,NE,45,1.0,5.0,96,0.00,,,0.84,Weather View 32 v70,2013-01-09 22:49:00,
2013-01-09 14:54:00,38.9,37.9,29.73,NE,45,2.0,5.0,96,0.00,,,0.84,Weather View 32 v70,2013-01-09 22:54:00,
2013-01-09 14:59:00,38.9,37.9,29.73,West,270,0.0,5.0,96,0.00,,,0.84,Weather View 32 v70,2013-01-09 22:59:00,
2013-01-09 15:04:00,38.9,37.9,29.73,West,270,0.0,2.0,96,0.00,,,0.84,Weather View 32 v70,2013-01-09 23:04:00,
2013-01-09 15:09:00,38.8,37.8,29.74,NNE,22,2.0,2.0,96,0.00,,,0.84,Weather View 32 v70,2013-01-09 23:09:00,
2013-01-09 15:14:00,38.8,37.8,29.74,North,360,0.0,2.0,96,0.00,,,0.84,Weather View 32 v70,2013-01-09 23:14:00,
2013-01-09 15:19:00,38.8,37.8,29.74,NNW,337,0.0,2.0,96,0.00,,,0.84,Weather View 32 v70,2013-01-09 23:19:00,
2013-01-09 15:24:00,38.7,37.7,29.74,North,360,0.0,2.0,96,0.00,,,0.84,Weather View 32 v70,2013-01-09 23:24:00,
2013-01-09 15:29:00,38.7,37.7,29.74,NNE,22,0.0,2.0,96,0.01,,,0.85,Weather View 32 v70,2013-01-09 23:29:00,
2013-01-09 15:34:00,38.7,37.7,29.74,NE,45,1.0,2.0,96,0.01,,,0.85,Weather View 32 v70,2013-01-09 23:34:00,
2013-01-09 15:39:00,38.6,37.6,29.74,NNE,22,1.0,2.0,96,0.01,,,0.85,Weather View 32 v70,2013-01-09 23:39:00,
2013-01-09 15:44:00,38.5,37.5,29.74,North,360,2.0,3.0,96,0.01,,,0.85,Weather View 32 v70,2013-01-09 23:44:00,
2013-01-09 15:49:00,38.4,37.4,29.74,NE,45,1.0,4.0,96,0.01,,,0.85,Weather View 32 v70,2013-01-09 23:49:00,
2013-01-09 15:54:00,38.3,37.3,29.75,NNE,22,0.0,4.0,96,0.01,,,0.85,Weather View 32 v70,2013-01-09 23:54:00,
2013-01-09 15:59:00,38.2,37.2,29.75,NNE,22,2.0,4.0,96,0.01,,,0.85,Weather View 32 v70,2013-01-09 23:59:00,
2013-01-09 16:04:00,38.2,37.2,29.75,NE,45,1.0,4.0,96,0.01,,,0.85,Weather View 32 v70,2013-01-10 00:04:00,
2013-01-09 16:05:00,38.1,37.1,29.75,North,360,1.0,4.0,96,0.01,,,0.85,Weather View 32 v70,2013-01-10 00:05:00,
2013-01-09 16:35:00,37.9,36.6,29.76,NE,45,2.0,4.0,95,0.00,,,0.85,Weather View 32 v70,2013-01-10 00:35:00,
2013-01-09 16:40:00,37.9,36.6,29.76,NE,45,2.0,4.0,95,0.00,,,0.85,Weather View 32 v70,2013-01-10 00:40:00,
2013-01-09 16:45:00,37.9,36.6,29.76,NE,45,0.0,4.0,95,0.00,,,0.85,Weather View 32 v70,2013-01-10 00:45:00,
2013-01-09 16:50:00,37.9,36.6,29.76,NE,45,1.0,4.0,95,0.00,,,0.85,Weather View 32 v70,2013-01-10 00:50:00,
2013-01-09 16:55:00,37.9,36.6,29.76,East,90,1.0,4.0,95,0.00,,,0.85,Weather View 32 v70,2013-01-10 00:55:00,
2013-01-09 17:00:00,37.9,36.6,29.76,ENE,67,2.0,4.0,95,0.00,,,0.85,Weather View 32 v70,2013-01-10 01:00:00,
2013-01-09 17:05:00,37.9,36.6,29.76,NE,45,2.0,2.0,95,0.00,,,0.85,Weather View 32 v70,2013-01-10 01:05:00,
2013-01-09 17:10:00,37.9,36.6,29.77,NE,45,3.0,3.0,95,0.00,,,0.85,Weather View 32 v70,2013-01-10 01:10:00,
2013-01-09 17:15:00,37.9,36.6,29.77,NE,45,1.0,4.0,95,0.00,,,0.85,Weather View 32 v70,2013-01-10 01:15:00,
2013-01-09 17:20:00,37.9,36.6,29.77,NNE,22,0.0,4.0,95,0.00,,,0.85,Weather View 32 v70,2013-01-10 01:20:00,
2013-01-09 17:25:00,37.8,36.5,29.77,ENE,67,0.0,4.0,95,0.00,,,0.85,Weather View 32 v70,2013-01-10 01:25:00,
2013-01-09 17:30:00,37.8,36.5,29.77,NNE,22,2.0,4.0,95,0.00,,,0.85,Weather View 32 v70,2013-01-10 01:30:00,
2013-01-09 17:35:00,37.9,36.6,29.77,ENE,67,2.0,4.0,95,0.00,,,0.85,Weather View 32 v70,2013-01-10 01:35:00,
2013-01-09 17:40:00,37.8,36.5,29.77,NNE,22,2.0,4.0,95,0.00,,,0.85,Weather View 32 v70,2013-01-10 01:40:00,
2013-01-09 17:45:00,37.8,36.5,29.77,SSW,202,0.0,4.0,95,0.00,,,0.85,Weather View 32 v70,2013-01-10 01:45:00,
2013-01-09 17:50:00,37.8,36.5,29.77,NE,45,0.0,4.0,95,0.00,,,0.85,Weather View 32 v70,2013-01-10 01:50:00,
2013-01-09 17:55:00,37.6,36.3,29.77,North,360,0.0,4.0,95,0.00,,,0.85,Weather View 32 v70,2013-01-10 01:55:00,
2013-01-09 18:00:00,37.6,36.3,29.77,NW,315,0.0,4.0,95,0.00,,,0.85,Weather View 32 v70,2013-01-10 02:00:00,
2013-01-09 18:05:00,37.6,36.3,29.78,NW,315,0.0,4.0,95,0.00,,,0.85,Weather View 32 v70,2013-01-10 02:05:00,
2013-01-09 18:10:00,37.7,36.4,29.78,North,360,0.0,4.0,95,0.00,,,0.85,Weather View 32 v70,2013-01-10 02:10:00,
2013-01-09 18:15:00,37.8,36.5,29.78,West,270,0.0,4.0,95,0.00,,,0.85,Weather View 32 v70,2013-01-10 02:15:00,
2013-01-09 18:20:00,37.7,36.4,29.79,West,270,0.0,4.0,95,0.00,,,0.85,Weather View 32 v70,2013-01-10 02:20:00,
2013-01-09 18:25:00,37.6,36.3,29.79,SSE,157,0.0,4.0,95,0.00,,,0.85,Weather View 32 v70,2013-01-10 02:25:00,
2013-01-09 18:30:00,37.5,36.2,29.79,SSE,157,0.0,4.0,95,0.00,,,0.85,Weather View 32 v70,2013-01-10 02:30:00,
2013-01-09 18:35:00,37.6,36.3,29.79,SW,225,0.0,4.0,95,0.00,,,0.85,Weather View 32 v70,2013-01-10 02:35:00,
2013-01-09 18:40:00,37.5,36.2,29.79,NE,45,0.0,4.0,95,0.00,,,0.85,Weather View 32 v70,2013-01-10 02:40:00,
2013-01-09 18:45:00,37.5,36.2,29.79,West,270,0.0,4.0,95,0.00,,,0.85,Weather View 32 v70,2013-01-10 02:45:00,
2013-01-09 18:50:00,37.3,36.0,29.80,WSW,247,1.0,3.0,95,0.00,,,0.85,Weather View 32 v70,2013-01-10 02:50:00,
2013-01-09 18:55:00,37.3,36.0,29.80,WSW,247,0.0,3.0,95,0.00,,,0.85,Weather View 32 v70,2013-01-10 02:55:00,
2013-01-09 19:00:00,37.2,35.9,29.80,WSW,247,0.0,3.0,95,0.00,,,0.85,Weather View 32 v70,2013-01-10 03:00:00,
2013-01-09 19:05:00,37.2,35.9,29.81,WSW,247,0.0,3.0,95,0.00,,,0.85,Weather View 32 v70,2013-01-10 03:05:00,
2013-01-09 19:10:00,37.2,35.9,29.81,WSW,247,1.0,3.0,95,0.00,,,0.85,Weather View 32 v70,2013-01-10 03:10:00,
2013-01-09 19:15:00,37.3,36.0,29.81,SE,135,0.0,3.0,95,0.00,,,0.85,Weather View 32 v70,2013-01-10 03:15:00,
2013-01-09 19:20:00,37.1,35.8,29.81,SE,135,1.0,3.0,95,0.00,,,0.85,Weather View 32 v70,2013-01-10 03:20:00,
2013-01-09 19:25:00,37.0,35.7,29.81,SSW,202,2.0,3.0,95,0.00,,,0.85,Weather View 32 v70,2013-01-10 03:25:00,
2013-01-09 19:30:00,37.3,36.0,29.81,SW,225,1.0,4.0,95,0.00,,,0.85,Weather View 32 v70,2013-01-10 03:30:00,
2013-01-09 19:35:00,37.5,36.2,29.81,NE,45,2.0,4.0,95,0.00,,,0.85,Weather View 32 v70,2013-01-10 03:35:00,
2013-01-09 19:40:00,37.4,36.1,29.81,ENE,67,0.0,4.0,95,0.00,,,0.85,Weather View 32 v70,2013-01-10 03:40:00,
2013-01-09 19:45:00,37.4,36.1,29.81,South,180,1.0,4.0,95,0.00,,,0.85,Weather View 32 v70,2013-01-10 03:45:00,
2013-01-09 19:50:00,37.4,36.1,29.81,NE,45,1.0,4.0,95,0.00,,,0.85,Weather View 32 v70,2013-01-10 03:50:00,
2013-01-09 19:55:00,37.6,36.3,29.81,SSW,202,0.0,4.0,95,0.00,,,0.85,Weather View 32 v70,2013-01-10 03:55:00,
2013-01-09 20:00:00,37.8,36.5,29.82,SSW,202,0.0,4.0,95,0.00,,,0.85,Weather View 32 v70,2013-01-10 04:00:00,
2013-01-09 20:06:00,37.5,36.2,29.82,ENE,67,0.0,4.0,95,0.00,,,0.85,Weather View 32 v70,2013-01-10 04:06:00,
2013-01-09 20:11:00,37.2,35.9,29.82,ENE,67,0.0,4.0,95,0.00,,,0.85,Weather View 32 v70,2013-01-10 04:11:00,
2013-01-09 20:16:00,37.2,35.9,29.82,South,180,0.0,4.0,95,0.00,,,0.85,Weather View 32 v70,2013-01-10 04:16:00,
2013-01-09 20:21:00,37.2,35.9,29.82,North,360,0.0,4.0,95,0.00,,,0.85,Weather View 32 v70,2013-01-10 04:21:00,
2013-01-09 20:26:00,37.3,36.0,29.83,East,90,2.0,4.0,95,0.00,,,0.85,Weather View 32 v70,2013-01-10 04:26:00,
2013-01-09 20:31:00,37.3,36.0,29.83,ENE,67,2.0,4.0,95,0.00,,,0.85,Weather View 32 v70,2013-01-10 04:31:00,
2013-01-09 20:36:00,37.1,35.8,29.83,SSW,202,0.0,4.0,95,0.00,,,0.85,Weather View 32 v70,2013-01-10 04:36:00,
2013-01-09 20:41:00,36.9,35.6,29.83,South,180,0.0,4.0,95,0.00,,,0.85,Weather View 32 v70,2013-01-10 04:41:00,
2013-01-09 20:46:00,36.9,35.6,29.83,South,180,0.0,4.0,95,0.00,,,0.85,Weather View 32 v70,2013-01-10 04:46:00,
2013-01-09 20:51:00,36.9,35.6,29.83,NE,45,0.0,4.0,95,0.00,,,0.85,Weather View 32 v70,2013-01-10 04:51:00,
2013-01-09 20:56:00,36.9,35.6,29.83,SE,135,1.0,4.0,95,0.00,,,0.85,Weather View 32 v70,2013-01-10 04:56:00,
2013-01-09 21:01:00,36.8,35.5,29.83,East,90,0.0,4.0,95,0.00,,,0.85,Weather View 32 v70,2013-01-10 05:01:00,
2013-01-09 21:03:00,36.7,35.4,29.83,East,90,2.0,4.0,95,0.00,,,0.85,Weather View 32 v70,2013-01-10 05:03:00,
2013-01-09 21:08:00,37.1,35.8,29.84,East,90,1.0,4.0,95,0.00,,,0.85,Weather View 32 v70,2013-01-10 05:08:00,
2013-01-09 21:13:00,36.8,35.5,29.84,South,180,0.0,4.0,95,0.00,,,0.85,Weather View 32 v70,2013-01-10 05:13:00,
2013-01-09 21:18:00,36.6,35.3,29.84,SSW,202,0.0,4.0,95,0.00,,,0.85,Weather View 32 v70,2013-01-10 05:18:00,
2013-01-09 21:23:00,36.5,35.2,29.84,WSW,247,0.0,4.0,95,0.00,,,0.85,Weather View 32 v70,2013-01-10 05:23:00,
2013-01-09 21:28:00,36.3,35.0,29.85,WSW,247,0.0,4.0,95,0.00,,,0.85,Weather View 32 v70,2013-01-10 05:28:00,
2013-01-09 21:33:00,36.5,35.2,29.85,East,90,0.0,4.0,95,0.00,,,0.85,Weather View 32 v70,2013-01-10 05:33:00,
2013-01-09 21:38:00,36.6,35.3,29.85,South,180,1.0,4.0,95,0.00,,,0.85,Weather View 32 v70,2013-01-10 05:38:00,
2013-01-09 21:43:00,36.7,35.4,29.85,South,180,0.0,4.0,95,0.00,,,0.85,Weather View 32 v70,2013-01-10 05:43:00,
2013-01-09 21:48:00,36.7,35.4,29.85,ESE,112,0.0,4.0,95,0.00,,,0.85,Weather View 32 v70,2013-01-10 05:48:00,
2013-01-09 21:53:00,36.7,35.4,29.85,East,90,0.0,4.0,95,0.00,,,0.85,Weather View 32 v70,2013-01-10 05:53:00,
2013-01-09 21:58:00,36.7,35.4,29.85,ESE,112,0.0,4.0,95,0.00,,,0.85,Weather View 32 v70,2013-01-10 05:58:00,
2013-01-09 22:03:00,36.7,35.4,29.86,East,90,1.0,4.0,95,0.00,,,0.85,Weather View 32 v70,2013-01-10 06:03:00,
2013-01-09 22:08:00,36.9,35.6,29.86,East,90,1.0,3.0,95,0.00,,,0.85,Weather View 32 v70,2013-01-10 06:08:00,
2013-01-09 22:13:00,36.9,35.6,29.86,East,90,0.0,3.0,95,0.00,,,0.85,Weather View 32 v70,2013-01-10 06:13:00,
2013-01-09 22:18:00,36.9,35.6,29.86,East,90,1.0,3.0,95,0.00,,,0.85,Weather View 32 v70,2013-01-10 06:18:00,
2013-01-09 22:23:00,36.8,35.5,29.86,SSE,157,0.0,2.0,95,0.00,,,0.85,Weather View 32 v70,2013-01-10 06:23:00,
2013-01-09 22:28:00,36.7,35.4,29.86,SSE,157,0.0,2.0,95,0.00,,,0.85,Weather View 32 v70,2013-01-10 06:28:00,
2013-01-09 22:33:00,36.5,35.2,29.87,East,90,0.0,2.0,95,0.00,,,0.85,Weather View 32 v70,2013-01-10 06:33:00,
2013-01-09 22:38:00,36.2,34.9,29.87,ESE,112,0.0,2.0,95,0.00,,,0.85,Weather View 32 v70,2013-01-10 06:38:00,
2013-01-09 22:43:00,35.9,34.6,29.87,East,90,1.0,2.0,95,0.00,,,0.85,Weather View 32 v70,2013-01-10 06:43:00,
2013-01-09 22:48:00,35.9,34.6,29.87,East,90,2.0,2.0,95,0.00,,,0.85,Weather View 32 v70,2013-01-10 06:48:00,
2013-01-09 22:53:00,35.8,34.5,29.87,South,180,0.0,2.0,95,0.00,,,0.85,Weather View 32 v70,2013-01-10 06:53:00,
2013-01-09 22:58:00,35.7,34.4,29.87,East,90,2.0,2.0,95,0.01,,,0.86,Weather View 32 v70,2013-01-10 06:58:00,
2013-01-09 23:04:00,35.6,34.3,29.87,East,90,0.0,2.0,95,0.01,,,0.86,Weather View 32 v70,2013-01-10 07:04:00,
2013-01-09 23:09:00,35.5,34.2,29.87,NE,45,1.0,2.0,95,0.01,,,0.86,Weather View 32 v70,2013-01-10 07:09:00,
2013-01-09 23:14:00,35.5,34.2,29.87,NNE,22,0.0,2.0,95,0.01,,,0.86,Weather View 32 v70,2013-01-10 07:14:00,
2013-01-09 23:19:00,35.5,34.2,29.87,NNE,22,0.0,2.0,95,0.01,,,0.86,Weather View 32 v70,2013-01-10 07:19:00,
2013-01-09 23:24:00,35.5,34.2,29.87,ENE,67,0.0,2.0,95,0.02,,,0.87,Weather View 32 v70,2013-01-10 07:24:00,
2013-01-09 23:29:00,35.6,34.3,29.87,NE,45,3.0,3.0,95,0.02,,,0.87,Weather View 32 v70,2013-01-10 07:29:00,
2013-01-09 23:34:00,35.5,34.2,29.87,NNE,22,0.0,3.0,95,0.02,,,0.87,Weather View 32 v70,2013-01-10 07:34:00,
2013-01-09 23:39:00,35.4,34.1,29.87,NE,45,2.0,3.0,95,0.02,,,0.87,Weather View 32 v70,2013-01-10 07:39:00,
2013-01-09 23:44:00,35.2,33.9,29.87,NE,45,0.0,3.0,95,0.02,,,0.87,Weather View 32 v70,2013-01-10 07:44:00,
2013-01-09 23:49:00,35.1,33.8,29.87,NE,45,0.0,3.0,95,0.02,,,0.87,Weather View 32 v70,2013-01-10 07:49:00,
2013-01-09 23:54:00,35.0,33.7,29.88,North,360,0.0,3.0,95,0.02,,,0.87,Weather View 32 v70,2013-01-10 07:54:00,
2013-01-09 23:59:00,34.9,33.6,29.88,ENE,67,1.0,3.0,95,0.02,,,0.88,Weather View 32 v70,2013-01-10 07:59:00,